Time;durP1;ratioP1;P1;durP2;ratioP2;P2;SDS_P1;SDS_P2;PMS_P1;PMS_P2;Temp;Humidity;BMP_temperature;BMP_pressure;BME280_temperature;BME280_humidity;BME280_pressure;Samples;Min_cycle;Max_cycle;Signal;HPM_P1;HPM_P2
2022/01/26 00:06:44;;;;;;;8.57;3.40;;;-2.80;99.90;;;;;;4937985;28;20075;-67
2022/01/26 00:09:12;;;;;;;7.32;3.33;;;-2.90;99.90;;;;;;4939511;28;20485;-66
2022/01/26 00:11:40;;;;;;;8.00;3.30;;;-2.80;99.90;;;;;;4940302;28;20510;-69
2022/01/26 00:14:12;;;;;;;11.52;3.83;;;-2.90;99.90;;;;;;4939233;28;20138;-69
2022/01/26 00:16:44;;;;;;;5.45;3.10;;;-2.80;99.90;;;;;;4943051;28;20047;-63
2022/01/26 00:19:18;;;;;;;6.85;3.33;;;-2.80;99.90;;;;;;4939716;28;20501;-69
2022/01/26 00:21:51;;;;;;;9.73;3.33;;;-2.80;99.90;;;;;;4937110;28;20062;-72
2022/01/26 00:29:57;;;;;;;7.68;2.75;;;-2.80;99.90;;;;;;4938059;28;20398;-67
2022/01/26 00:40:41;;;;;;;4.43;3.53;;;-2.60;99.90;;;;;;4930022;28;20058;-66
2022/01/26 00:43:21;;;;;;;8.55;2.47;;;-2.70;99.90;;;;;;4937192;28;21430;-68
2022/01/26 00:45:54;;;;;;;5.15;2.33;;;-2.70;99.90;;;;;;4934979;28;20159;-69
2022/01/26 00:48:22;;;;;;;8.32;2.80;;;-2.70;99.90;;;;;;4931329;28;20050;-68
2022/01/26 00:50:53;;;;;;;10.52;2.65;;;-2.70;99.90;;;;;;4934445;28;20178;-70
2022/01/26 00:53:24;;;;;;;8.38;3.33;;;-2.70;99.90;;;;;;4938908;28;20079;-70
2022/01/26 00:55:51;;;;;;;4.07;2.72;;;-2.70;99.90;;;;;;4929730;28;21026;-69
2022/01/26 00:58:18;;;;;;;10.75;2.30;;;-2.60;99.90;;;;;;4935789;28;20265;-68
2022/01/26 01:00:45;;;;;;;7.15;2.50;;;-2.70;99.90;;;;;;4936874;28;20071;-66
2022/01/26 01:03:12;;;;;;;8.48;2.47;;;-2.60;99.90;;;;;;4933382;28;20729;-71
2022/01/26 01:05:52;;;;;;;10.48;3.50;;;-2.60;99.90;;;;;;4934543;28;20043;-68
2022/01/26 01:08:22;;;;;;;5.88;2.03;;;-2.60;99.90;;;;;;4842050;28;22041;-69
2022/01/26 01:10:51;;;;;;;4.63;2.63;;;-2.60;99.90;;;;;;991515;28;10001989;-71
2022/01/26 01:13:23;;;;;;;6.97;2.70;;;-2.50;99.90;;;;;;4937401;28;20210;-71
2022/01/26 01:15:51;;;;;;;9.38;2.58;;;-2.50;99.90;;;;;;4937445;28;20055;-72
2022/01/26 01:18:26;;;;;;;8.38;2.78;;;-2.50;99.90;;;;;;4939098;28;20056;-70
2022/01/26 01:28:44;;;;;;;3.08;2.03;;;-2.40;99.90;;;;;;4936615;28;20067;-70
2022/01/26 01:32:00;;;;;;;4.10;1.88;;;-2.40;99.90;;;;;;4937811;28;20138;-69
2022/01/26 01:33:59;;;;;;;9.02;2.25;;;-2.30;99.90;;;;;;4929243;28;20061;-66
2022/01/26 01:36:25;;;;;;;4.65;2.00;;;-2.30;99.90;;;;;;4937584;28;20059;-70
2022/01/26 01:38:54;;;;;;;8.77;2.00;;;-2.20;99.90;;;;;;4934759;28;21083;-64
2022/01/26 01:41:22;;;;;;;10.10;2.55;;;-2.20;99.90;;;;;;4937339;28;20058;-69
2022/01/26 01:43:48;;;;;;;11.30;3.20;;;-2.20;99.90;;;;;;4934814;28;20058;-69
2022/01/26 01:46:16;;;;;;;5.90;2.15;;;-2.20;99.90;;;;;;4936298;28;20117;-66
2022/01/26 01:48:43;;;;;;;5.03;2.00;;;-2.10;99.90;;;;;;4937242;28;20054;-68
2022/01/26 01:51:13;;;;;;;4.68;2.13;;;-2.10;99.90;;;;;;4936897;28;20141;-67
2022/01/26 01:53:42;;;;;;;4.45;1.95;;;-2.10;99.90;;;;;;4937656;28;20082;-65
2022/01/26 01:56:17;;;;;;;11.35;2.38;;;-2.10;99.90;;;;;;4934630;28;20162;-68
2022/01/26 01:58:44;;;;;;;5.43;2.47;;;-2.10;99.90;;;;;;4936949;28;21452;-65
2022/01/26 02:01:11;;;;;;;6.05;1.95;;;-2.00;99.90;;;;;;4935526;28;20573;-66
2022/01/26 02:03:38;;;;;;;3.35;1.48;;;-2.00;99.90;;;;;;4936246;28;20106;-67
2022/01/26 02:06:05;;;;;;;8.32;2.75;;;-2.00;99.90;;;;;;4936204;28;20058;-67
2022/01/26 02:08:33;;;;;;;2.78;1.25;;;-2.00;99.90;;;;;;4936435;28;20107;-69
2022/01/26 02:11:00;;;;;;;4.80;3.28;;;-1.90;99.90;;;;;;4936466;28;20902;-69
2022/01/26 02:13:32;;;;;;;6.57;2.67;;;-1.90;99.90;;;;;;4933490;28;20054;-70
2022/01/26 02:16:11;;;;;;;7.53;2.20;;;-1.80;99.90;;;;;;4934808;28;20516;-66
2022/01/26 02:54:43;;;;;;;5.20;2.05;;;-1.30;99.90;;;;;;4938915;28;20082;-64
2022/01/26 03:00:14;;;;;;;7.47;2.17;;;-1.20;99.90;;;;;;4933368;28;20146;-67
2022/01/26 03:05:14;;;;;;;4.97;2.38;;;-1.20;99.90;;;;;;4935898;28;20102;-65
2022/01/26 03:07:46;;;;;;;6.60;2.23;;;-1.20;99.90;;;;;;4882544;28;20046;-66
2022/01/26 03:10:45;;;;;;;5.40;2.65;;;-1.20;99.90;;;;;;1316842;28;10002915;-67
2022/01/26 03:13:10;;;;;;;5.47;2.28;;;-1.10;99.90;;;;;;4595160;28;10001486;-66
2022/01/26 03:15:43;;;;;;;4.28;2.00;;;-1.00;99.90;;;;;;4936576;28;20051;-72
2022/01/26 03:20:41;;;;;;;5.05;1.27;;;-0.90;99.90;;;;;;4938959;28;20057;-66
2022/01/26 03:32:02;;;;;;;5.97;2.20;;;-0.90;99.90;;;;;;4936629;28;20174;-67
2022/01/26 03:34:13;;;;;;;10.38;2.45;;;-0.80;99.90;;;;;;4935420;28;20062;-65
2022/01/26 03:37:26;;;;;;;6.72;2.85;;;-0.70;99.90;;;;;;4936824;28;20059;-70
2022/01/26 03:39:38;;;;;;;9.93;2.40;;;-0.60;99.90;;;;;;4931411;28;20109;-66
2022/01/26 03:42:07;;;;;;;7.30;2.45;;;-0.60;99.90;;;;;;4938463;28;20180;-68
2022/01/26 03:44:35;;;;;;;7.43;2.83;;;-0.60;99.90;;;;;;4935705;28;20177;-67
2022/01/26 03:47:02;;;;;;;2.05;1.63;;;-0.60;99.90;;;;;;4939009;28;20051;-68
2022/01/26 03:49:29;;;;;;;5.10;2.38;;;-0.50;99.90;;;;;;4934425;28;20082;-69
2022/01/26 03:51:56;;;;;;;7.68;2.67;;;-0.50;99.90;;;;;;4934968;28;20248;-70
2022/01/26 03:54:23;;;;;;;9.35;2.13;;;-0.40;99.90;;;;;;4935994;28;20055;-71
2022/01/26 03:56:50;;;;;;;6.30;2.20;;;-0.40;99.90;;;;;;4935757;28;20058;-67
2022/01/26 03:59:17;;;;;;;7.57;2.45;;;-0.30;99.90;;;;;;4933911;28;20061;-66
2022/01/26 04:01:44;;;;;;;9.40;3.20;;;-0.20;99.90;;;;;;4939090;28;20788;-66
2022/01/26 04:04:12;;;;;;;14.07;3.15;;;-0.20;99.90;;;;;;4939070;28;20062;-70
2022/01/26 04:06:39;;;;;;;5.70;2.17;;;-0.20;99.90;;;;;;4940152;28;20038;-66
2022/01/26 04:09:09;;;;;;;8.45;1.88;;;-0.20;99.90;;;;;;4940524;28;20059;-68
2022/01/26 04:14:12;;;;;;;5.80;2.35;;;-0.10;99.90;;;;;;4940405;28;20057;-68
2022/01/26 04:16:41;;;;;;;4.90;1.80;;;0.00;99.90;;;;;;4939026;28;20138;-69
2022/01/26 04:19:08;;;;;;;2.88;1.52;;;0.00;99.90;;;;;;4940396;28;20120;-71
2022/01/26 04:24:26;;;;;;;9.65;2.63;;;0.10;99.90;;;;;;4940806;28;20094;-69
2022/01/26 04:27:04;;;;;;;8.95;2.15;;;0.20;99.90;;;;;;4937039;28;20058;-68
2022/01/26 04:29:33;;;;;;;7.93;2.97;;;0.20;99.90;;;;;;4938368;28;20090;-66
2022/01/26 04:32:04;;;;;;;9.80;3.38;;;0.30;99.90;;;;;;4940937;28;20084;-68
2022/01/26 04:34:32;;;;;;;4.85;1.77;;;0.30;99.90;;;;;;4940727;28;20097;-71
2022/01/26 04:37:11;;;;;;;8.02;2.22;;;0.40;99.90;;;;;;4936947;28;20154;-69
2022/01/26 04:39:47;;;;;;;10.00;2.83;;;0.40;99.90;;;;;;4938380;28;20204;-71
2022/01/26 04:42:20;;;;;;;6.80;2.80;;;0.40;99.90;;;;;;4940689;28;20055;-69
2022/01/26 04:44:57;;;;;;;6.70;2.25;;;0.50;99.90;;;;;;4938219;28;20075;-67
2022/01/26 04:47:24;;;;;;;12.20;3.78;;;0.50;99.90;;;;;;4938708;28;20552;-69
2022/01/26 04:49:51;;;;;;;7.70;2.33;;;0.50;99.90;;;;;;4937626;28;20141;-66
2022/01/26 04:52:18;;;;;;;7.15;2.83;;;0.50;99.90;;;;;;4937860;28;20153;-72
2022/01/26 04:54:45;;;;;;;8.18;3.03;;;0.50;99.90;;;;;;4937239;28;20173;-68
2022/01/26 04:57:11;;;;;;;9.45;3.55;;;0.60;99.90;;;;;;4938871;28;20066;-68
2022/01/26 04:59:38;;;;;;;9.35;2.83;;;0.60;99.90;;;;;;4936795;28;20054;-66
2022/01/26 05:02:05;;;;;;;10.85;5.65;;;0.60;99.90;;;;;;4938007;28;20139;-67
2022/01/26 05:04:32;;;;;;;6.85;3.50;;;0.60;99.90;;;;;;4938885;28;20047;-67
2022/01/26 05:06:59;;;;;;;10.02;4.93;;;0.70;99.90;;;;;;4934528;28;20055;-68
2022/01/26 05:09:26;;;;;;;9.45;5.38;;;0.70;99.90;;;;;;4937650;28;20138;-70
2022/01/26 05:11:55;;;;;;;14.63;5.50;;;0.60;99.90;;;;;;4934309;28;20059;-66
2022/01/26 05:14:22;;;;;;;15.60;6.90;;;0.70;99.90;;;;;;4937062;28;20058;-65
2022/01/26 05:16:49;;;;;;;18.48;8.23;;;0.70;99.90;;;;;;4939618;28;20078;-68
2022/01/26 05:19:17;;;;;;;6.10;4.95;;;0.70;99.90;;;;;;4938973;28;20065;-69
2022/01/26 05:21:43;;;;;;;7.85;4.57;;;0.70;99.90;;;;;;4949260;28;20582;-65
2022/01/26 05:24:11;;;;;;;10.80;6.38;;;0.70;99.90;;;;;;4939187;28;21412;-65
2022/01/26 05:26:39;;;;;;;12.38;5.63;;;0.70;99.90;;;;;;4938057;28;20179;-69
2022/01/26 05:29:11;;;;;;;12.00;6.65;;;0.80;99.90;;;;;;4938945;28;20116;-73
2022/01/26 05:31:39;;;;;;;10.15;6.15;;;0.80;99.90;;;;;;4937534;28;20138;-68
2022/01/26 05:34:07;;;;;;;10.68;6.32;;;0.80;99.90;;;;;;4938786;28;20079;-66
2022/01/26 05:36:34;;;;;;;11.32;6.43;;;0.80;99.90;;;;;;4938998;28;20059;-70
2022/01/26 05:39:02;;;;;;;12.93;6.68;;;0.80;99.90;;;;;;4938630;28;20157;-70
2022/01/26 05:41:29;;;;;;;9.82;6.10;;;0.80;99.90;;;;;;4935238;28;20081;-64
2022/01/26 05:43:56;;;;;;;14.10;7.32;;;0.80;99.90;;;;;;4934217;28;20154;-72
2022/01/26 05:46:31;;;;;;;13.85;6.25;;;0.80;99.90;;;;;;4936816;28;20047;-67
2022/01/26 05:48:58;;;;;;;11.32;5.88;;;0.80;99.90;;;;;;4938542;28;20047;-67
2022/01/26 05:51:27;;;;;;;10.73;5.35;;;0.80;99.90;;;;;;4934251;28;20051;-66
2022/01/26 05:53:55;;;;;;;8.20;6.07;;;0.80;99.90;;;;;;4937090;28;20174;-65
2022/01/26 05:56:21;;;;;;;10.88;8.25;;;0.80;99.90;;;;;;4937713;28;20077;-71
2022/01/26 05:58:48;;;;;;;14.82;7.53;;;0.80;99.90;;;;;;4937950;28;20193;-69
2022/01/26 06:01:15;;;;;;;11.95;8.95;;;0.80;99.90;;;;;;4939361;28;20043;-69
2022/01/26 06:03:42;;;;;;;14.30;8.23;;;0.80;99.90;;;;;;4931009;28;20058;-67
2022/01/26 06:06:09;;;;;;;11.40;8.77;;;0.80;99.90;;;;;;4937704;28;20063;-70
2022/01/26 06:08:36;;;;;;;10.23;9.05;;;0.80;99.90;;;;;;4938984;28;20514;-65
2022/01/26 06:11:04;;;;;;;12.10;7.53;;;0.80;99.90;;;;;;4935634;28;20142;-76
2022/01/26 06:13:31;;;;;;;12.68;7.03;;;0.80;99.90;;;;;;4934723;28;20055;-68
2022/01/26 06:15:58;;;;;;;11.57;6.78;;;0.80;99.90;;;;;;4937625;28;20061;-66
2022/01/26 06:18:25;;;;;;;10.20;6.53;;;0.80;99.90;;;;;;4935333;28;20051;-72
2022/01/26 06:20:52;;;;;;;11.30;6.25;;;0.80;99.90;;;;;;4936273;28;20165;-68
2022/01/26 06:23:25;;;;;;;8.30;6.47;;;0.80;99.90;;;;;;4937182;28;20133;-70
2022/01/26 06:25:58;;;;;;;17.77;12.35;;;0.80;99.90;;;;;;4912585;28;20063;-66
2022/01/26 06:28:40;;;;;;;7.43;5.52;;;0.80;99.90;;;;;;2785195;28;10004354;-68
2022/01/26 06:31:11;;;;;;;7.85;6.18;;;0.80;99.90;;;;;;2893790;28;10001072;-70
2022/01/26 06:33:40;;;;;;;8.80;7.30;;;0.80;99.90;;;;;;4933223;28;21677;-68
2022/01/26 06:36:12;;;;;;;6.07;5.22;;;0.80;99.90;;;;;;4936896;28;20051;-71
2022/01/26 06:38:41;;;;;;;12.73;8.15;;;0.80;99.90;;;;;;4934144;28;20146;-70
2022/01/26 06:41:08;;;;;;;8.57;5.80;;;0.90;99.90;;;;;;4937624;28;20062;-69
2022/01/26 06:43:44;;;;;;;7.90;6.63;;;0.90;99.90;;;;;;4934474;28;20182;-65
2022/01/26 06:46:18;;;;;;;12.52;6.97;;;0.90;99.90;;;;;;4937470;28;20068;-65
2022/01/26 06:51:31;;;;;;;10.95;7.15;;;0.90;99.90;;;;;;4934029;28;20142;-66
2022/01/26 06:53:58;;;;;;;12.48;7.28;;;0.90;99.90;;;;;;4937296;28;20102;-67
2022/01/26 06:56:25;;;;;;;7.10;6.25;;;0.90;99.90;;;;;;4938073;28;20051;-69
2022/01/26 06:58:51;;;;;;;9.02;5.80;;;1.00;99.90;;;;;;4934095;28;20136;-66
2022/01/26 07:01:18;;;;;;;7.05;5.63;;;1.00;99.90;;;;;;4937685;28;20055;-68
2022/01/26 07:03:47;;;;;;;9.85;6.65;;;1.10;99.90;;;;;;4931169;28;20066;-66
2022/01/26 07:06:14;;;;;;;6.97;4.22;;;1.10;99.90;;;;;;4937342;28;20119;-68
2022/01/26 07:08:47;;;;;;;9.48;5.38;;;1.10;99.90;;;;;;4667550;28;10000642;-69
2022/01/26 07:11:14;;;;;;;8.80;5.53;;;1.10;99.90;;;;;;1692060;29;10002023;-67
2022/01/26 07:13:42;;;;;;;7.28;5.55;;;1.20;99.90;;;;;;4932254;28;21433;-68
2022/01/26 07:21:40;;;;;;;6.90;5.53;;;1.30;99.90;;;;;;4930669;28;20502;-72
2022/01/26 07:24:07;;;;;;;12.18;4.70;;;1.30;99.90;;;;;;4913130;28;21214;-65
2022/01/26 07:26:53;;;;;;;12.42;5.95;;;1.40;99.90;;;;;;2202647;28;10024477;-72
2022/01/26 07:29:24;;;;;;;8.90;7.97;;;1.40;99.90;;;;;;3572888;28;10001279;-69
2022/01/26 07:31:51;;;;;;;12.18;7.07;;;1.40;99.90;;;;;;4936463;28;21268;-67
2022/01/26 07:34:23;;;;;;;14.70;6.88;;;1.40;99.90;;;;;;4937516;28;20051;-69
2022/01/26 07:36:54;;;;;;;13.15;8.35;;;1.40;99.90;;;;;;4940718;28;20540;-69
2022/01/26 07:39:32;;;;;;;13.68;7.45;;;1.40;99.90;;;;;;4940597;28;20059;-70
2022/01/26 07:42:00;;;;;;;11.20;8.43;;;1.50;99.90;;;;;;4937145;28;20106;-72
2022/01/26 07:44:27;;;;;;;14.95;7.07;;;1.60;99.90;;;;;;4939368;28;20051;-71
2022/01/26 07:46:54;;;;;;;10.60;7.57;;;1.60;99.90;;;;;;4939423;28;20065;-71
2022/01/26 07:49:22;;;;;;;13.48;7.63;;;1.60;99.90;;;;;;4938267;28;20051;-69
2022/01/26 07:51:50;;;;;;;10.35;7.85;;;1.70;99.90;;;;;;4965496;28;20407;-69
2022/01/26 07:54:18;;;;;;;12.85;7.18;;;1.70;99.90;;;;;;4937536;28;20187;-70
2022/01/26 07:56:46;;;;;;;10.75;6.30;;;1.80;99.90;;;;;;4940793;28;20094;-68
2022/01/26 07:59:13;;;;;;;11.30;6.10;;;1.80;99.90;;;;;;4937930;28;20083;-69
2022/01/26 08:01:40;;;;;;;14.57;7.55;;;1.90;99.90;;;;;;4940437;28;20497;-68
2022/01/26 08:04:08;;;;;;;11.98;6.25;;;1.90;99.90;;;;;;4939738;28;20106;-67
2022/01/26 08:06:38;;;;;;;12.23;5.78;;;1.90;99.90;;;;;;4938306;28;20055;-66
2022/01/26 08:09:05;;;;;;;6.90;5.90;;;1.90;99.90;;;;;;4935974;28;20060;-68
2022/01/26 08:11:31;;;;;;;10.38;6.20;;;2.00;99.90;;;;;;4939171;28;20055;-66
2022/01/26 08:13:58;;;;;;;18.55;6.72;;;2.00;99.90;;;;;;4939062;28;20056;-71
2022/01/26 08:16:25;;;;;;;12.95;7.47;;;2.00;99.90;;;;;;4937492;28;20178;-70
2022/01/26 08:18:52;;;;;;;9.35;5.80;;;2.00;99.90;;;;;;4936916;28;20051;-70
2022/01/26 08:21:19;;;;;;;11.80;6.43;;;2.10;99.90;;;;;;4937478;28;20178;-70
2022/01/26 08:23:48;;;;;;;7.38;5.50;;;2.20;99.90;;;;;;4938812;28;20055;-67
2022/01/26 08:26:20;;;;;;;9.15;6.25;;;2.20;99.90;;;;;;4938891;28;20208;-67
2022/01/26 08:28:53;;;;;;;15.52;8.38;;;2.20;99.90;;;;;;4937038;28;20474;-70
2022/01/26 08:31:20;;;;;;;13.27;8.48;;;2.30;99.90;;;;;;4936417;28;20774;-71
2022/01/26 08:33:47;;;;;;;17.10;10.18;;;2.30;99.90;;;;;;4933805;28;20054;-71
2022/01/26 08:36:15;;;;;;;12.00;8.98;;;2.40;99.90;;;;;;4934208;28;20547;-73
2022/01/26 08:38:42;;;;;;;11.00;9.18;;;2.40;99.90;;;;;;4940275;28;20530;-69
2022/01/26 08:41:10;;;;;;;10.48;7.57;;;2.40;99.90;;;;;;4935668;28;20565;-68
2022/01/26 08:43:37;;;;;;;10.50;7.18;;;2.50;99.90;;;;;;4936306;28;20050;-74
2022/01/26 08:46:04;;;;;;;9.43;6.30;;;2.50;99.90;;;;;;4935602;28;20051;-71
2022/01/26 08:48:31;;;;;;;12.85;5.72;;;2.60;99.90;;;;;;4938874;28;20047;-71
2022/01/26 08:50:58;;;;;;;7.93;5.90;;;2.60;99.90;;;;;;4937818;28;20059;-71
2022/01/26 08:53:25;;;;;;;8.93;4.28;;;2.70;99.90;;;;;;4936267;28;20055;-69
2022/01/26 08:55:52;;;;;;;7.00;4.60;;;2.80;99.90;;;;;;4937196;28;20080;-68
2022/01/26 08:58:19;;;;;;;5.85;3.95;;;2.80;99.90;;;;;;4937292;28;20134;-70
2022/01/26 09:00:47;;;;;;;7.68;3.65;;;2.80;99.90;;;;;;4938166;28;20051;-69
2022/01/26 09:03:15;;;;;;;7.80;4.40;;;2.90;99.90;;;;;;4936055;28;20055;-67
2022/01/26 09:05:43;;;;;;;7.55;4.10;;;2.90;99.90;;;;;;4937585;28;20058;-70
2022/01/26 09:08:09;;;;;;;9.18;4.78;;;2.90;99.90;;;;;;4937086;28;20489;-70
2022/01/26 09:10:39;;;;;;;7.07;3.70;;;3.00;99.90;;;;;;4937804;28;20058;-66
2022/01/26 09:13:06;;;;;;;6.45;3.95;;;3.10;99.90;;;;;;4872147;28;21422;-68
2022/01/26 09:15:53;;;;;;;7.35;3.52;;;3.10;99.90;;;;;;1923135;28;10023802;-66
2022/01/26 09:18:31;;;;;;;6.93;3.58;;;3.20;99.90;;;;;;4597284;28;10001590;-68
2022/01/26 09:20:58;;;;;;;8.02;3.95;;;3.20;99.90;;;;;;4938110;28;20592;-67
2022/01/26 09:23:25;;;;;;;11.57;5.35;;;3.20;99.90;;;;;;4940162;28;20088;-66
2022/01/26 09:25:52;;;;;;;6.90;4.28;;;3.20;99.90;;;;;;4935423;28;20687;-68
2022/01/26 09:28:19;;;;;;;13.77;5.88;;;3.20;99.90;;;;;;4940111;28;20051;-69
2022/01/26 09:30:46;;;;;;;10.40;6.93;;;3.30;99.90;;;;;;4937020;28;20086;-69
2022/01/26 09:33:13;;;;;;;11.23;7.25;;;3.30;99.90;;;;;;4937515;28;20051;-69
2022/01/26 09:35:40;;;;;;;11.27;7.60;;;3.30;99.90;;;;;;4934815;28;20488;-66
2022/01/26 09:38:11;;;;;;;7.28;4.93;;;3.40;99.90;;;;;;4938348;28;20055;-68
2022/01/26 09:40:38;;;;;;;7.68;4.72;;;3.40;99.90;;;;;;4934466;28;20078;-66
2022/01/26 09:43:06;;;;;;;6.03;4.28;;;3.40;99.90;;;;;;4936439;28;20173;-71
2022/01/26 09:45:35;;;;;;;6.22;3.42;;;3.40;99.90;;;;;;4935096;28;20139;-72
2022/01/26 09:48:03;;;;;;;8.40;3.13;;;3.50;99.90;;;;;;4933305;28;20138;-66
2022/01/26 09:50:46;;;;;;;6.75;3.85;;;3.50;99.90;;;;;;4938108;28;20405;-69
2022/01/26 09:53:17;;;;;;;6.70;3.42;;;3.50;99.90;;;;;;4936505;28;20055;-67
2022/01/26 09:55:44;;;;;;;3.88;3.17;;;3.50;99.90;;;;;;4933413;28;20059;-66
2022/01/26 09:58:11;;;;;;;4.57;3.72;;;3.50;99.90;;;;;;4937285;28;20064;-76
2022/01/26 10:00:38;;;;;;;7.28;4.22;;;3.50;99.90;;;;;;4935640;28;20047;-65
2022/01/26 10:03:06;;;;;;;6.93;3.58;;;3.50;99.90;;;;;;4936936;28;20131;-69
2022/01/26 10:05:43;;;;;;;7.28;4.22;;;3.60;99.90;;;;;;4936336;28;21056;-69
2022/01/26 10:17:03;;;;;;;11.65;8.65;;;3.60;99.90;;;;;;4934968;28;20055;-67
2022/01/26 10:18:56;;;;;;;10.20;6.38;;;3.60;99.90;;;;;;4934102;28;20538;-65
2022/01/26 10:21:24;;;;;;;11.30;5.63;;;3.60;99.90;;;;;;4936031;28;20074;-65
2022/01/26 10:23:57;;;;;;;10.30;6.47;;;3.60;99.90;;;;;;4936146;28;21026;-66
2022/01/26 10:26:25;;;;;;;6.50;5.63;;;3.60;99.90;;;;;;4937503;28;20142;-65
2022/01/26 10:28:58;;;;;;;8.63;6.93;;;3.60;99.90;;;;;;4939624;28;20145;-66
2022/01/26 10:31:26;;;;;;;9.82;7.82;;;3.60;99.90;;;;;;4939249;28;20141;-71
2022/01/26 10:34:09;;;;;;;7.82;7.00;;;3.60;99.90;;;;;;4935168;28;20051;-69
2022/01/26 10:36:37;;;;;;;9.30;6.57;;;3.60;99.90;;;;;;4935104;28;20599;-69
2022/01/26 10:39:08;;;;;;;9.38;6.20;;;3.60;99.90;;;;;;4940713;28;21223;-69
2022/01/26 10:41:37;;;;;;;6.03;4.78;;;3.60;99.90;;;;;;4935006;28;20141;-72
2022/01/26 10:44:05;;;;;;;9.15;3.33;;;3.70;99.90;;;;;;4936352;28;20076;-70
2022/01/26 10:46:40;;;;;;;6.00;3.80;;;3.70;99.90;;;;;;4936525;28;20091;-64
2022/01/26 10:49:19;;;;;;;7.38;3.30;;;3.70;99.90;;;;;;4936775;28;20573;-69
2022/01/26 10:57:06;;;;;;;6.15;4.68;;;3.80;99.90;;;;;;4937538;28;20051;-66
2022/01/26 10:59:42;;;;;;;4.63;2.60;;;3.80;99.90;;;;;;4931085;28;20649;-69
2022/01/26 11:02:12;;;;;;;5.63;3.47;;;3.80;99.90;;;;;;4936901;28;20553;-70
2022/01/26 11:04:42;;;;;;;6.55;3.45;;;3.80;99.90;;;;;;4933415;28;20146;-68
2022/01/26 11:07:14;;;;;;;4.47;2.80;;;3.80;99.90;;;;;;4934548;28;20253;-72
2022/01/26 11:09:46;;;;;;;8.55;5.03;;;3.90;99.90;;;;;;4935418;28;20659;-69
2022/01/26 11:12:16;;;;;;;9.00;5.05;;;3.90;99.90;;;;;;4938339;28;20135;-69
2022/01/26 11:14:51;;;;;;;6.53;4.82;;;3.90;99.90;;;;;;4938159;28;20116;-71
2022/01/26 11:17:34;;;;;;;9.15;4.90;;;4.00;99.90;;;;;;4940860;28;20051;-65
2022/01/26 11:20:21;;;;;;;7.93;5.70;;;3.90;99.90;;;;;;4938844;28;20097;-67
2022/01/26 11:22:57;;;;;;;9.10;3.92;;;4.00;99.90;;;;;;4938412;28;20106;-69
2022/01/26 11:25:27;;;;;;;10.20;5.55;;;4.00;99.90;;;;;;4938650;28;20055;-71
2022/01/26 11:27:55;;;;;;;9.98;5.60;;;4.00;99.90;;;;;;4938079;28;20133;-69
2022/01/26 11:30:29;;;;;;;6.22;3.95;;;4.00;99.90;;;;;;4938736;28;20051;-73
2022/01/26 11:33:21;;;;;;;6.32;4.30;;;4.00;99.90;;;;;;4940115;28;20059;-72
2022/01/26 11:35:50;;;;;;;15.77;8.32;;;4.10;99.90;;;;;;4935584;28;20207;-67
2022/01/26 11:47:18;;;;;;;20.40;12.20;;;4.20;99.90;;;;;;4940832;28;20047;-68
2022/01/26 11:49:47;;;;;;;12.45;6.97;;;4.30;99.90;;;;;;4936203;28;20062;-67
2022/01/26 11:52:29;;;;;;;9.15;6.38;;;4.30;99.90;;;;;;4939330;28;20413;-72
2022/01/26 11:54:59;;;;;;;16.77;9.90;;;4.30;99.90;;;;;;4935872;28;20054;-74
2022/01/26 11:57:48;;;;;;;16.50;9.15;;;4.40;99.90;;;;;;4936052;28;20059;-68
2022/01/26 12:00:23;;;;;;;26.27;13.70;;;4.40;99.90;;;;;;4936440;28;20164;-74
2022/01/26 12:02:54;;;;;;;10.00;6.93;;;4.40;99.90;;;;;;4936000;28;20141;-66
2022/01/26 12:05:24;;;;;;;8.18;3.63;;;4.40;99.90;;;;;;4939834;28;20222;-69
2022/01/26 12:07:58;;;;;;;3.35;2.20;;;4.40;99.90;;;;;;4935787;28;20505;-67
2022/01/26 12:10:30;;;;;;;3.17;1.90;;;4.40;99.90;;;;;;4937253;28;20111;-71
2022/01/26 12:13:19;;;;;;;4.68;1.95;;;4.50;99.90;;;;;;4940678;28;20059;-73
2022/01/26 12:18:23;;;;;;;4.70;1.67;;;4.50;99.90;;;;;;4938125;28;20154;-67
2022/01/26 12:38:30;;;;;;;2.10;1.67;;;4.60;99.90;;;;;;4935928;28;20059;-69
2022/01/26 12:43:48;;;;;;;3.25;1.55;;;4.60;99.90;;;;;;4934200;28;20602;-70
2022/01/26 12:46:26;;;;;;;3.33;0.95;;;4.70;99.90;;;;;;4940629;28;20047;-70
2022/01/26 12:49:20;;;;;;;2.50;1.10;;;4.70;99.90;;;;;;4935740;28;20047;-70
2022/01/26 12:51:52;;;;;;;2.00;1.45;;;4.80;99.90;;;;;;4933061;28;20142;-69
2022/01/26 12:54:20;;;;;;;2.00;1.10;;;4.80;99.90;;;;;;4936235;28;20050;-70
2022/01/26 12:56:47;;;;;;;1.55;0.80;;;4.80;99.90;;;;;;4938893;28;20145;-70
2022/01/26 12:59:21;;;;;;;4.35;0.90;;;4.90;99.90;;;;;;4934452;28;20059;-66
2022/01/26 13:01:53;;;;;;;2.63;1.27;;;4.90;99.90;;;;;;4933970;28;20463;-69
2022/01/26 13:04:20;;;;;;;1.38;1.20;;;5.00;99.90;;;;;;4936592;28;20058;-73
2022/01/26 13:06:51;;;;;;;1.52;1.08;;;5.00;99.90;;;;;;4931586;28;20047;-73
2022/01/26 13:09:21;;;;;;;2.38;1.10;;;5.00;99.90;;;;;;4936910;28;20111;-70
2022/01/26 13:11:50;;;;;;;1.88;0.95;;;5.00;99.90;;;;;;4931601;28;20074;-70
2022/01/26 13:14:40;;;;;;;1.25;1.13;;;5.00;99.90;;;;;;4934297;28;20063;-76
2022/01/26 13:23:01;;;;;;;1.35;0.82;;;4.90;99.90;;;;;;4935530;28;20134;-66
2022/01/26 13:41:23;;;;;;;1.92;1.13;;;5.10;99.90;;;;;;4938303;28;20101;-76
2022/01/26 13:52:31;;;;;;;5.72;1.05;;;5.20;99.90;;;;;;4934923;28;22046;-70
2022/01/26 14:00:07;;;;;;;4.65;2.08;;;5.10;99.90;;;;;;4937011;28;20411;-73
2022/01/26 14:02:36;;;;;;;;;;;5.10;99.90;;;;;;4936659;28;20062;-71
2022/01/26 14:05:04;;;;;;;2.58;1.33;;;5.10;99.90;;;;;;4934029;28;19930;-71
2022/01/26 14:07:31;;;;;;;6.28;1.20;;;5.10;99.90;;;;;;4936050;28;20078;-70
2022/01/26 14:09:58;;;;;;;2.67;2.13;;;5.10;99.90;;;;;;4931618;28;20063;-72
2022/01/26 14:12:29;;;;;;;4.18;1.70;;;5.10;99.90;;;;;;4929604;28;20047;-74
2022/01/26 14:14:58;;;;;;;2.95;1.05;;;5.10;99.90;;;;;;4932204;28;20097;-73
2022/01/26 14:18:01;;;;;;;4.03;1.67;;;5.10;99.90;;;;;;4928540;28;20652;-66
2022/01/26 14:25:55;;;;;;;3.53;1.52;;;5.00;99.90;;;;;;4935784;28;20055;-66
2022/01/26 14:28:28;;;;;;;6.25;1.20;;;5.00;99.90;;;;;;4935433;28;20050;-70
2022/01/26 14:36:38;;;;;;;2.70;1.45;;;4.90;99.90;;;;;;4935732;28;20185;-71
2022/01/26 14:54:03;;;;;;;5.85;1.38;;;4.80;99.90;;;;;;4935475;28;20078;-65
2022/01/26 15:40:18;;;;;;;3.25;1.67;;;4.70;99.90;;;;;;4932774;28;20067;-73
2022/01/26 15:50:58;;;;;;;5.85;2.25;;;4.60;99.90;;;;;;4935763;28;20051;-69
2022/01/26 17:24:19;;;;;;;15.68;5.10;;;4.20;99.90;;;;;;4937712;28;20169;-74
2022/01/26 17:43:17;;;;;;;9.65;2.70;;;3.80;99.90;;;;;;4938767;28;20138;-68
2022/01/26 18:27:05;;;;;;;15.48;3.88;;;3.60;99.90;;;;;;4937518;28;20055;-70
2022/01/26 18:32:27;;;;;;;16.83;3.40;;;3.60;99.90;;;;;;4938657;28;20134;-74
2022/01/26 18:49:19;;;;;;;10.90;3.88;;;3.70;99.90;;;;;;4937120;28;20540;-72
2022/01/26 18:51:52;;;;;;;11.80;2.63;;;3.70;99.90;;;;;;4935376;28;20059;-67
2022/01/26 18:54:24;;;;;;;10.70;2.65;;;3.70;99.90;;;;;;4936897;28;20055;-69
2022/01/26 18:56:52;;;;;;;16.65;3.55;;;3.70;99.90;;;;;;4937751;28;20055;-69
2022/01/26 18:59:22;;;;;;;13.95;2.95;;;3.70;99.90;;;;;;4895134;28;20060;-67
2022/01/26 19:02:08;;;;;;;11.05;2.72;;;3.70;99.90;;;;;;2251253;28;10024510;-67
2022/01/26 19:04:54;;;;;;;13.63;3.15;;;3.60;99.90;;;;;;3572568;28;10001662;-68
2022/01/26 19:07:24;;;;;;;17.48;3.50;;;3.60;99.90;;;;;;4936438;28;20147;-69
2022/01/26 19:09:52;;;;;;;16.50;3.05;;;3.60;99.90;;;;;;4938224;28;20086;-67
2022/01/26 19:12:22;;;;;;;17.73;5.28;;;3.60;99.90;;;;;;4940325;28;20110;-68
2022/01/26 19:14:54;;;;;;;16.45;4.43;;;3.60;99.90;;;;;;4939489;28;20126;-72
2022/01/26 19:17:30;;;;;;;22.10;3.78;;;3.60;99.90;;;;;;4937852;28;20063;-67
2022/01/26 19:25:15;;;;;;;20.80;4.40;;;3.60;99.90;;;;;;4945332;28;20051;-65
2022/01/26 19:27:50;;;;;;;14.10;3.03;;;3.60;99.90;;;;;;4932913;28;20060;-67
2022/01/26 19:52:11;;;;;;;21.42;4.45;;;3.40;99.90;;;;;;4930898;28;20604;-66
2022/01/26 19:54:42;;;;;;;7.40;2.35;;;3.40;99.90;;;;;;4933927;28;21745;-66
2022/01/26 19:57:09;;;;;;;19.73;4.00;;;3.40;99.90;;;;;;4933378;28;20083;-66
2022/01/26 19:59:37;;;;;;;11.45;4.45;;;3.50;99.90;;;;;;4935692;28;20123;-74
2022/01/26 20:02:05;;;;;;;23.55;8.80;;;3.40;99.90;;;;;;4938206;28;20137;-66
2022/01/26 20:04:33;;;;;;;21.75;7.22;;;3.40;99.90;;;;;;4940678;28;20051;-69
2022/01/26 20:07:05;;;;;;;16.88;6.03;;;3.40;99.90;;;;;;4939680;28;20138;-69
2022/01/26 20:09:39;;;;;;;12.57;2.85;;;3.40;99.90;;;;;;4939274;28;20146;-66
2022/01/26 20:12:10;;;;;;;11.38;3.72;;;3.40;99.90;;;;;;4938648;28;20473;-67
2022/01/26 20:14:37;;;;;;;9.43;3.25;;;3.40;99.90;;;;;;4941233;28;20059;-70
2022/01/26 20:17:06;;;;;;;10.98;3.67;;;3.30;99.90;;;;;;4936986;28;20090;-71
2022/01/26 20:19:35;;;;;;;8.68;2.70;;;3.30;99.90;;;;;;4938055;28;20066;-71
2022/01/26 20:22:03;;;;;;;9.10;2.67;;;3.30;99.90;;;;;;4900890;28;20109;-65
2022/01/26 20:24:49;;;;;;;7.57;1.72;;;3.30;99.90;;;;;;2244372;28;10023901;-69
2022/01/26 20:27:19;;;;;;;14.13;4.97;;;3.30;99.90;;;;;;3576974;28;10001049;-68
2022/01/26 20:29:48;;;;;;;17.52;3.28;;;3.30;99.90;;;;;;4938949;28;20059;-67
2022/01/26 20:32:15;;;;;;;8.35;2.38;;;3.30;99.90;;;;;;4937762;28;20054;-67